createdAt,value
2022-08-17T00:00:34.965Z,99583.52
2022-08-17T00:05:44.207Z,99578.20
2022-08-17T00:10:47.524Z,99577.66
2022-08-17T00:15:50.111Z,99576.58
2022-08-17T00:20:54.181Z,99569.56
2022-08-17T00:25:56.601Z,99571.54
2022-08-17T00:30:59.289Z,99569.02
2022-08-17T00:36:02.519Z,99568.20
2022-08-17T00:41:10.708Z,99566.16
2022-08-17T00:46:18.181Z,99576.86
2022-08-17T00:51:25.465Z,99583.17
2022-08-17T00:56:34.356Z,99581.54
2022-08-17T01:01:37.955Z,99589.48
2022-08-17T01:06:42.014Z,99590.83
2022-08-17T01:11:46.314Z,99589.34
2022-08-17T01:16:50.598Z,99591.20
2022-08-17T01:22:03.102Z,99597.77
2022-08-17T01:27:10.470Z,99602.63
2022-08-17T01:32:14.301Z,99602.69
2022-08-17T01:37:18.150Z,99599.09
2022-08-17T01:42:29.368Z,99604.31
2022-08-17T01:47:32.312Z,99606.81
2022-08-17T01:52:39.419Z,99606.10
2022-08-17T01:57:45.353Z,99602.15
2022-08-17T02:02:48.092Z,99610.00
2022-08-17T02:08:00.644Z,99603.92
2022-08-17T02:13:04.343Z,99600.04
2022-08-17T02:18:09.091Z,99590.41
2022-08-17T02:23:13.599Z,99595.38
2022-08-17T02:28:17.377Z,99595.94
2022-08-17T02:33:20.798Z,99592.07
2022-08-17T02:38:24.029Z,99588.41
2022-08-17T02:43:27.536Z,99587.52
2022-08-17T02:48:31.948Z,99588.89
2022-08-17T02:53:35.785Z,99587.52
2022-08-17T02:58:38.835Z,99590.64
2022-08-17T03:03:42.123Z,99585.40
2022-08-17T03:08:44.574Z,99584.74
2022-08-17T03:13:46.974Z,99582.90
2022-08-17T03:18:49.386Z,99585.34
2022-08-17T03:23:54.736Z,99587.88
2022-08-17T03:28:57.242Z,99592.89
2022-08-17T03:34:00.908Z,99594.88
2022-08-17T03:39:04.670Z,99595.29
2022-08-17T03:44:07.163Z,99596.95
2022-08-17T03:49:12.617Z,99599.57
2022-08-17T03:54:17.986Z,99598.10
2022-08-17T03:59:22.671Z,99603.41
2022-08-17T04:04:27.608Z,99609.90
2022-08-17T04:09:30.921Z,99615.02
2022-08-17T04:14:39.287Z,99617.59
2022-08-17T04:19:55.376Z,99617.88
2022-08-17T04:24:57.893Z,99619.16
2022-08-17T04:30:01.958Z,99615.96
2022-08-17T04:35:04.724Z,99617.77
2022-08-17T04:40:10.641Z,99616.27
2022-08-17T04:45:13.066Z,99620.70
2022-08-17T04:50:16.877Z,99618.73
2022-08-17T04:55:19.293Z,99624.73
2022-08-17T05:00:21.744Z,99628.48
2022-08-17T05:05:27.648Z,99633.71
2022-08-17T05:10:33.881Z,99633.40
2022-08-17T05:15:45.204Z,99635.05
2022-08-17T05:20:50.318Z,99642.53
2022-08-17T05:25:56.307Z,99645.05
2022-08-17T05:31:01.555Z,99648.67
2022-08-17T05:43:24.674Z,99650.73
2022-08-17T05:48:35.554Z,99656.73
2022-08-17T05:53:43.574Z,99652.80
2022-08-17T05:58:46.899Z,99650.09
2022-08-17T06:03:55.378Z,99660.48
2022-08-17T06:09:05.684Z,99657.40
2022-08-17T06:14:20.672Z,99660.19
2022-08-17T06:19:22.989Z,99668.27
2022-08-17T06:24:31.240Z,99673.70
2022-08-17T06:29:48.246Z,99676.17
2022-08-17T06:34:51.779Z,99681.77
2022-08-17T06:40:22.594Z,99684.29
2022-08-17T06:45:31.153Z,99684.23
2022-08-17T06:50:44.087Z,99686.20
2022-08-17T06:55:53.845Z,99689.22
2022-08-17T07:01:00.743Z,99690.45
2022-08-17T07:06:10.963Z,99690.36
2022-08-17T07:11:19.156Z,99688.46
2022-08-17T07:16:30.384Z,99686.51
2022-08-17T07:21:43.385Z,99681.02
2022-08-17T07:26:46.517Z,99684.66
2022-08-17T07:31:48.998Z,99682.70
2022-08-17T07:37:05.110Z,99686.66
2022-08-17T07:42:10.157Z,99691.91
2022-08-17T07:47:19.118Z,99694.27
2022-08-17T07:52:51.365Z,99691.14
2022-08-17T07:57:57.176Z,99695.20
2022-08-17T08:03:14.573Z,99692.42
2022-08-17T08:08:25.796Z,99691.04
2022-08-17T08:13:30.140Z,99692.85
2022-08-17T08:18:54.169Z,99692.80
2022-08-17T08:24:09.487Z,99693.13
2022-08-17T08:29:28.277Z,99694.75
2022-08-17T08:35:02.098Z,99694.30
2022-08-17T08:40:10.820Z,99691.80
2022-08-17T08:45:23.964Z,99692.20
2022-08-17T08:50:38.145Z,99699.12
2022-08-17T08:55:46.857Z,99691.05
2022-08-17T09:00:54.493Z,99689.19
2022-08-17T09:06:06.712Z,99688.86
2022-08-17T09:12:02.082Z,99694.73
2022-08-17T09:17:12.549Z,99697.40
2022-08-17T09:22:30.317Z,99699.27
2022-08-17T09:27:47.515Z,99694.81
2022-08-17T09:32:58.733Z,99693.43
2022-08-17T09:38:13.118Z,99694.50
2022-08-17T09:43:27.493Z,99691.31
2022-08-17T09:48:38.856Z,99692.52
2022-08-17T09:53:44.555Z,99701.57
2022-08-17T09:59:01.891Z,99700.02
2022-08-17T10:04:08.713Z,99698.15
2022-08-17T10:09:20.312Z,99700.75
2022-08-17T10:14:36.284Z,99698.02
2022-08-17T10:19:49.194Z,99700.59
2022-08-17T10:25:21.507Z,99701.40
2022-08-17T10:30:24.910Z,99696.02
2022-08-17T10:35:30.218Z,99696.60
2022-08-17T10:40:37.955Z,99700.48
2022-08-17T10:46:50.064Z,99702.25
2022-08-17T10:51:57.150Z,99694.14
2022-08-17T10:56:59.719Z,99695.68
2022-08-17T11:02:12.107Z,99695.91
2022-08-17T11:07:29.098Z,99691.66
2022-08-17T11:12:33.448Z,99690.58
2022-08-17T11:17:41.700Z,99690.33
2022-08-17T11:23:03.966Z,99689.84
2022-08-17T11:28:18.034Z,99684.72
2022-08-17T11:33:44.744Z,99686.46
2022-08-17T11:38:57.781Z,99685.73
2022-08-17T11:44:10.292Z,99683.36
2022-08-17T11:49:38.944Z,99685.83
2022-08-17T11:54:45.679Z,99685.39
2022-08-17T11:59:48.100Z,99687.66
2022-08-17T12:04:57.525Z,99688.10
2022-08-17T12:10:00.932Z,99684.85
2022-08-17T12:15:10.585Z,99681.64
2022-08-17T12:20:16.096Z,99676.29
2022-08-17T12:25:32.796Z,99680.58
2022-08-17T12:30:36.179Z,99685.85
2022-08-17T12:35:38.952Z,99683.02
2022-08-17T12:40:54.432Z,99688.93
2022-08-17T12:46:01.291Z,99690.33
2022-08-17T12:51:18.092Z,99692.05
2022-08-17T12:56:20.844Z,99692.56
2022-08-17T13:01:25.135Z,99696.48
2022-08-17T13:06:33.128Z,99691.28
2022-08-17T13:11:35.644Z,99689.67
2022-08-17T13:16:38.240Z,99688.91
2022-08-17T13:21:45.847Z,99691.25
2022-08-17T13:26:54.357Z,99686.03
2022-08-17T13:32:04.285Z,99685.58
2022-08-17T13:37:18.287Z,99672.65
2022-08-17T13:42:29.384Z,99676.15
2022-08-17T13:47:34.211Z,99673.88
2022-08-17T13:52:42.946Z,99682.52
2022-08-17T13:57:50.329Z,99679.14
2022-08-17T14:03:09.205Z,99680.48
2022-08-17T14:08:12.951Z,99670.96
2022-08-17T14:13:15.300Z,99666.03
2022-08-17T14:18:55.634Z,99663.10
2022-08-17T14:23:43.609Z,99663.71
2022-08-17T14:28:54.635Z,99668.63
2022-08-17T14:33:58.943Z,99668.90
2022-08-17T14:39:01.248Z,99671.66
2022-08-17T14:44:04.171Z,99670.01
2022-08-17T14:49:07.292Z,99666.73
2022-08-17T14:54:09.830Z,99671.12
2022-08-17T14:59:12.396Z,99673.31
2022-08-17T15:04:18.337Z,99672.30
2022-08-17T15:09:20.703Z,99672.15
2022-08-17T15:14:24.499Z,99668.87
2022-08-17T15:19:26.830Z,99676.91
2022-08-17T15:24:29.136Z,99674.94
2022-08-17T15:29:31.437Z,99671.22
2022-08-17T15:34:33.793Z,99666.54
2022-08-17T15:39:36.190Z,99663.40
2022-08-17T15:44:39.436Z,99666.77
2022-08-17T15:49:42.860Z,99667.37
2022-08-17T15:54:49.087Z,99661.65
2022-08-17T15:59:55.293Z,99667.23
2022-08-17T16:05:02.062Z,99676.60
2022-08-17T16:10:06.131Z,99677.45
2022-08-17T16:15:08.768Z,99680.71
2022-08-17T16:20:19.514Z,99685.59
2022-08-17T16:25:38.877Z,99687.66
2022-08-17T16:30:47.405Z,99693.43
2022-08-17T16:35:49.675Z,99688.02
2022-08-17T16:40:51.991Z,99683.88
2022-08-17T16:45:54.460Z,99686.00
2022-08-17T16:50:58.552Z,99689.56
2022-08-17T16:56:07.293Z,99691.13
2022-08-17T17:01:09.662Z,99684.19
2022-08-17T17:06:13.511Z,99686.02
2022-08-17T17:11:21.512Z,99692.14
2022-08-17T17:16:33.041Z,99693.32
2022-08-17T17:21:38.265Z,99701.36
2022-08-17T17:26:40.625Z,99701.77
2022-08-17T17:31:47.989Z,99699.45
2022-08-17T17:36:52.503Z,99700.06
2022-08-17T17:41:57.243Z,99704.70
2022-08-17T17:47:00.785Z,99710.56
2022-08-17T17:52:13.154Z,99718.68
2022-08-17T17:57:21.493Z,99724.67
2022-08-17T18:02:37.394Z,99722.98
2022-08-17T18:07:44.367Z,99731.29
2022-08-17T18:12:57.907Z,99731.93
2022-08-17T18:18:20.426Z,99736.95
2022-08-17T18:23:28.071Z,99741.42
2022-08-17T18:28:33.820Z,99743.73
2022-08-17T18:33:38.117Z,99750.94
2022-08-17T18:38:41.889Z,99748.27
2022-08-17T18:43:53.011Z,99751.84
2022-08-17T18:48:59.228Z,99751.17
2022-08-17T18:54:04.866Z,99755.23
2022-08-17T18:59:07.231Z,99762.25
2022-08-17T19:04:12.991Z,99760.59
2022-08-17T19:09:18.291Z,99765.45
2022-08-17T19:14:21.124Z,99769.56
2022-08-17T19:19:28.205Z,99778.83
2022-08-17T19:24:31.469Z,99777.92
2022-08-17T19:29:39.455Z,99781.70
2022-08-17T19:34:44.320Z,99780.63
2022-08-17T19:39:49.613Z,99781.05
2022-08-17T19:44:59.440Z,99784.89
2022-08-17T19:50:08.827Z,99790.88
2022-08-17T19:55:19.798Z,99808.77
2022-08-17T20:00:23.083Z,99815.36
2022-08-17T20:05:29.168Z,99823.30
2022-08-17T20:10:37.354Z,99829.02
2022-08-17T20:15:41.959Z,99838.85
2022-08-17T20:20:47.333Z,99835.97
2022-08-17T20:25:51.593Z,99831.16
2022-08-17T20:30:54.644Z,99827.77
2022-08-17T20:36:01.074Z,99836.39
2022-08-17T20:41:03.876Z,99842.58
2022-08-17T20:46:10.952Z,99837.38
2022-08-17T20:51:13.232Z,99837.80
2022-08-17T20:56:20.246Z,99840.08
2022-08-17T21:01:35.106Z,99842.19
2022-08-17T21:07:00.355Z,99840.26
2022-08-17T21:12:05.545Z,99835.48
2022-08-17T21:17:17.635Z,99839.55
2022-08-17T21:22:24.244Z,99836.62
2022-08-17T21:27:29.567Z,99839.92
2022-08-17T21:32:33.852Z,99855.24
2022-08-17T21:44:17.254Z,99841.52
2022-08-17T21:49:25.986Z,99852.80
2022-08-17T21:54:34.522Z,99847.19
2022-08-17T21:59:38.531Z,99836.56
2022-08-17T22:04:41.656Z,99830.86
2022-08-17T22:09:45.601Z,99827.54
2022-08-17T22:14:53.966Z,99822.80
2022-08-17T22:19:59.588Z,99818.86
2022-08-17T22:25:04.591Z,99812.45
2022-08-17T22:30:09.885Z,99806.66
2022-08-17T22:41:51.920Z,99805.11
2022-08-17T22:46:57.835Z,99812.52
2022-08-17T22:52:03.404Z,99809.55
2022-08-17T22:57:15.377Z,99812.36
2022-08-17T23:02:23.364Z,99816.16
2022-08-17T23:07:25.813Z,99813.92
2022-08-17T23:12:29.021Z,99820.13
2022-08-17T23:17:37.233Z,99817.56
2022-08-17T23:22:51.204Z,99811.94
2022-08-17T23:27:55.783Z,99810.89
2022-08-17T23:33:00.998Z,99803.83
2022-08-17T23:38:03.380Z,99813.73
2022-08-17T23:43:09.932Z,99819.27
2022-08-17T23:48:28.479Z,99814.92
2022-08-17T23:53:41.766Z,99823.88
2022-08-17T23:58:44.681Z,99818.98
